Wolf Run, OH

4:22 PM EDT on September 02, 2014 (GMT -0400)
Sunset Gardens | Change Station
CLOSE
Current Station
Personal Weather Station
Location: Wintersville, OH
Elevation: 1150 ft
Nearby Weather Stations

Elev 1150 ft 40.38 °N, 80.72 °W | Updated 1 minute ago

Mostly Cloudy
Mostly Cloudy
79.5 °F
Feels Like 83 °F
N
5.0
Wind Variable Wind from WSW
Gusts 5.0 mph

Today
High -- | Low -- °F
--% Chance of Precip.
Yesterday
High -- | Low -- °F
Precip. -- in
6:51 AM 7:53 PM
First Quarter, 54% visible
Pressure 29.88 in
Visibility 10.0 miles
Clouds Few 3600 ft
Scattered Clouds 4600 ft
Mostly Cloudy 6500 ft
Heat Index 83 °F
Dew Point 71 °F
Humidity 76%
Rainfall 0.00 in
Snow Depth Not available.
UV 3 out of 12
Pollen 7.60 out of 12
Air Quality Not available.
Flu Activity Not available.
METAR KHLG 021953Z 25015G27KT 10SM FEW036 SCT046 BKN065 27/19 A2990 RMK AO2 PK WND 25027/1950 LTG DSNT E RAE02 SLP116 P0000 T02720194

More Conditions Fewer Conditions

Pressure 29.88 in
Visibility 10.0 miles
Clouds Few 3600 ft
Scattered Clouds 4600 ft
Mostly Cloudy 6500 ft
Heat Index 83 °F
Dew Point 71 °F
Humidity 76%
Rainfall 0.00 in
Snow Depth Not available.
UV 3 out of 12
Pollen 7.60 out of 12
Air Quality Not available.
Flu Activity Not available.
METAR KHLG 021953Z 25015G27KT 10SM FEW036 SCT046 BKN065 27/19 A2990 RMK AO2 PK WND 25027/1950 LTG DSNT E RAE02 SLP116 P0000 T02720194

More Conditions Fewer Conditions

10-Day Weather Forecast

Almanac

Astronomy

Sep. 02, 2014 Rise Set
Actual Time 6:51 AM EDT 7:53 PM EDT
Civil Twilight 6:23 AM EDT 8:21 PM EDT
Nautical Twilight 5:50 AM EDT 8:54 PM EDT
Astronomical Twilight 5:15 AM EDT 9:29 PM EDT
Moon 2:36 PM EDT No Moon Set
Length of Visible Light 13h 57m
Length of Day
13h 02m
Tomorrow will be 2m 35s shorter.
First Quarter, 54% of the Moon is Illuminated
Today
First Quarter
Sep 8
Full
Sep 15
Last Quarter
Sep 24
New
Oct 1
First Quarter

Today's Extremes

State Highs State Lows

Community

WunderPhotos

Upload Photos

1,749,757 photos uploaded!

WunderBlogs® & News

By Dr. Jeff Masters
Director of Meteorology, Weather Underground
By Kari Strenfel
Meteorologist, Weather Underground
By Christopher C. Burt
Weather Historian, Weather Underground
September 2, 2014
September 2, 2014
September 2, 2014

Nearby

Snow Depth

Station Depth Elevation
No new snow has been reported.

Earthquake Activity

City Distance Mag. Time & Date
No recent earthquake activity has been reported nearby.
Minimum magnitude displayed is 2.5.

Coastal Water Temperatures

Place Temperature
No Stations Reporting

Nearby Weather Stations